Аэропорт: Рощино. Тюмень

ICAO: USTR

METAR:
2019-07-23 18:30:00
USTR 231830Z 32002MPS 5000 2100E BR BCFG NSC 17/16 Q1006 R21/190063 R30/190063 TEMPO 0200 FG RMK QFE745/0994
METAR:
2019-07-23 17:02:00
TAF AMD USTR 231702Z 2317/2418 32003MPS 1000 BR SCT003 SCT020CB TEMPO 2317/2403 0300 FG VV001 FM240400 34005G12MPS 9999 SCT020CB